sensor_id;sensor_type;location;lat;lon;timestamp;P1;durP1;ratioP1;P2;durP2;ratioP2
21235;SDS011;10775;42.678;26.324;2022-12-20T00:01:27;6.75;;;3.13;;
21235;SDS011;10775;42.678;26.324;2022-12-20T00:03:54;6.60;;;3.15;;
21235;SDS011;10775;42.678;26.324;2022-12-20T00:06:22;6.05;;;3.47;;
21235;SDS011;10775;42.678;26.324;2022-12-20T00:08:52;5.70;;;3.17;;
21235;SDS011;10775;42.678;26.324;2022-12-20T00:11:24;5.93;;;2.72;;
21235;SDS011;10775;42.678;26.324;2022-12-20T00:13:50;5.43;;;2.83;;
21235;SDS011;10775;42.678;26.324;2022-12-20T00:16:17;6.03;;;3.05;;
21235;SDS011;10775;42.678;26.324;2022-12-20T00:18:44;6.57;;;2.90;;
21235;SDS011;10775;42.678;26.324;2022-12-20T00:21:15;3.97;;;2.42;;
21235;SDS011;10775;42.678;26.324;2022-12-20T00:23:42;5.65;;;2.92;;
21235;SDS011;10775;42.678;26.324;2022-12-20T00:26:12;4.80;;;2.58;;
21235;SDS011;10775;42.678;26.324;2022-12-20T00:28:40;5.50;;;2.90;;
21235;SDS011;10775;42.678;26.324;2022-12-20T00:31:07;4.68;;;2.45;;
21235;SDS011;10775;42.678;26.324;2022-12-20T00:33:34;5.25;;;2.95;;
21235;SDS011;10775;42.678;26.324;2022-12-20T00:36:02;4.47;;;2.42;;
21235;SDS011;10775;42.678;26.324;2022-12-20T00:38:28;6.13;;;2.75;;
21235;SDS011;10775;42.678;26.324;2022-12-20T00:41:02;5.72;;;2.83;;
21235;SDS011;10775;42.678;26.324;2022-12-20T00:43:30;5.93;;;2.50;;
21235;SDS011;10775;42.678;26.324;2022-12-20T00:45:56;5.10;;;2.72;;
21235;SDS011;10775;42.678;26.324;2022-12-20T00:48:22;4.95;;;2.83;;
21235;SDS011;10775;42.678;26.324;2022-12-20T00:50:48;5.85;;;2.50;;
21235;SDS011;10775;42.678;26.324;2022-12-20T00:53:14;4.75;;;2.20;;
21235;SDS011;10775;42.678;26.324;2022-12-20T00:55:40;3.92;;;1.80;;
21235;SDS011;10775;42.678;26.324;2022-12-20T00:58:07;4.80;;;2.28;;
21235;SDS011;10775;42.678;26.324;2022-12-20T01:00:33;8.13;;;2.75;;
21235;SDS011;10775;42.678;26.324;2022-12-20T01:02:59;3.47;;;1.92;;
21235;SDS011;10775;42.678;26.324;2022-12-20T01:05:25;5.55;;;2.75;;
21235;SDS011;10775;42.678;26.324;2022-12-20T01:07:50;4.00;;;2.05;;
21235;SDS011;10775;42.678;26.324;2022-12-20T01:10:16;7.28;;;2.22;;
21235;SDS011;10775;42.678;26.324;2022-12-20T01:12:42;4.07;;;2.20;;
21235;SDS011;10775;42.678;26.324;2022-12-20T01:15:08;4.53;;;2.45;;
21235;SDS011;10775;42.678;26.324;2022-12-20T01:17:35;4.80;;;2.20;;
21235;SDS011;10775;42.678;26.324;2022-12-20T01:20:00;4.03;;;1.90;;
21235;SDS011;10775;42.678;26.324;2022-12-20T01:22:26;5.90;;;2.33;;
21235;SDS011;10775;42.678;26.324;2022-12-20T01:24:52;4.15;;;2.22;;
21235;SDS011;10775;42.678;26.324;2022-12-20T01:27:18;3.83;;;2.03;;
21235;SDS011;10775;42.678;26.324;2022-12-20T01:29:43;4.28;;;2.00;;
21235;SDS011;10775;42.678;26.324;2022-12-20T01:32:09;4.95;;;1.95;;
21235;SDS011;10775;42.678;26.324;2022-12-20T01:34:35;4.00;;;1.90;;
21235;SDS011;10775;42.678;26.324;2022-12-20T01:37:00;5.05;;;2.08;;
21235;SDS011;10775;42.678;26.324;2022-12-20T01:39:26;3.88;;;2.05;;
21235;SDS011;10775;42.678;26.324;2022-12-20T01:41:51;3.75;;;1.60;;
21235;SDS011;10775;42.678;26.324;2022-12-20T01:46:43;5.25;;;1.77;;
21235;SDS011;10775;42.678;26.324;2022-12-20T01:49:18;3.40;;;1.33;;
21235;SDS011;10775;42.678;26.324;2022-12-20T01:54:30;4.18;;;1.73;;
21235;SDS011;10775;42.678;26.324;2022-12-20T01:57:04;4.25;;;1.58;;
21235;SDS011;10775;42.678;26.324;2022-12-20T01:59:36;4.28;;;1.70;;
21235;SDS011;10775;42.678;26.324;2022-12-20T02:02:07;2.33;;;1.45;;
21235;SDS011;10775;42.678;26.324;2022-12-20T02:04:35;2.85;;;1.27;;
21235;SDS011;10775;42.678;26.324;2022-12-20T02:07:01;3.13;;;1.65;;
21235;SDS011;10775;42.678;26.324;2022-12-20T02:09:28;4.28;;;1.73;;
21235;SDS011;10775;42.678;26.324;2022-12-20T02:17:20;2.55;;;1.50;;
21235;SDS011;10775;42.678;26.324;2022-12-20T02:22:28;3.70;;;1.75;;
21235;SDS011;10775;42.678;26.324;2022-12-20T02:32:51;4.72;;;1.73;;
21235;SDS011;10775;42.678;26.324;2022-12-20T02:35:25;3.45;;;1.83;;
21235;SDS011;10775;42.678;26.324;2022-12-20T02:37:54;3.22;;;1.70;;
21235;SDS011;10775;42.678;26.324;2022-12-20T02:40:23;2.17;;;1.17;;
21235;SDS011;10775;42.678;26.324;2022-12-20T02:42:53;2.83;;;1.23;;
21235;SDS011;10775;42.678;26.324;2022-12-20T02:45:29;2.70;;;1.33;;
21235;SDS011;10775;42.678;26.324;2022-12-20T02:48:05;4.88;;;1.58;;
21235;SDS011;10775;42.678;26.324;2022-12-20T02:50:49;3.17;;;1.63;;
21235;SDS011;10775;42.678;26.324;2022-12-20T02:53:18;2.83;;;0.97;;
21235;SDS011;10775;42.678;26.324;2022-12-20T02:59:22;2.87;;;1.40;;
21235;SDS011;10775;42.678;26.324;2022-12-20T03:01:38;2.15;;;1.33;;
21235;SDS011;10775;42.678;26.324;2022-12-20T03:04:09;2.47;;;1.25;;
21235;SDS011;10775;42.678;26.324;2022-12-20T03:06:37;1.35;;;0.88;;
21235;SDS011;10775;42.678;26.324;2022-12-20T03:09:04;2.90;;;1.48;;
21235;SDS011;10775;42.678;26.324;2022-12-20T03:11:32;1.65;;;1.10;;
21235;SDS011;10775;42.678;26.324;2022-12-20T03:14:00;2.60;;;1.23;;
21235;SDS011;10775;42.678;26.324;2022-12-20T03:16:27;2.10;;;1.13;;
21235;SDS011;10775;42.678;26.324;2022-12-20T03:18:54;2.55;;;1.13;;
21235;SDS011;10775;42.678;26.324;2022-12-20T03:21:20;4.00;;;1.75;;
21235;SDS011;10775;42.678;26.324;2022-12-20T03:23:45;3.53;;;1.30;;
21235;SDS011;10775;42.678;26.324;2022-12-20T03:26:11;2.78;;;1.10;;
21235;SDS011;10775;42.678;26.324;2022-12-20T03:28:36;2.58;;;1.23;;
21235;SDS011;10775;42.678;26.324;2022-12-20T03:31:03;1.80;;;1.10;;
21235;SDS011;10775;42.678;26.324;2022-12-20T03:33:29;3.15;;;1.30;;
21235;SDS011;10775;42.678;26.324;2022-12-20T03:35:55;4.05;;;1.75;;
21235;SDS011;10775;42.678;26.324;2022-12-20T03:38:20;2.50;;;1.50;;
21235;SDS011;10775;42.678;26.324;2022-12-20T03:40:46;2.40;;;1.35;;
21235;SDS011;10775;42.678;26.324;2022-12-20T03:43:12;2.63;;;1.10;;
21235;SDS011;10775;42.678;26.324;2022-12-20T03:45:37;2.63;;;1.33;;
21235;SDS011;10775;42.678;26.324;2022-12-20T03:48:03;3.70;;;1.30;;
21235;SDS011;10775;42.678;26.324;2022-12-20T03:50:29;1.63;;;1.00;;
21235;SDS011;10775;42.678;26.324;2022-12-20T03:52:55;1.65;;;1.10;;
21235;SDS011;10775;42.678;26.324;2022-12-20T03:55:22;2.80;;;1.27;;
21235;SDS011;10775;42.678;26.324;2022-12-20T03:57:48;2.10;;;0.90;;
21235;SDS011;10775;42.678;26.324;2022-12-20T04:00:14;3.25;;;1.10;;
21235;SDS011;10775;42.678;26.324;2022-12-20T04:02:40;2.10;;;0.95;;
21235;SDS011;10775;42.678;26.324;2022-12-20T04:05:07;1.88;;;0.98;;
21235;SDS011;10775;42.678;26.324;2022-12-20T04:07:32;2.25;;;1.17;;
21235;SDS011;10775;42.678;26.324;2022-12-20T04:09:58;2.10;;;0.93;;
21235;SDS011;10775;42.678;26.324;2022-12-20T04:12:24;2.63;;;1.17;;
21235;SDS011;10775;42.678;26.324;2022-12-20T04:14:51;2.88;;;1.20;;
21235;SDS011;10775;42.678;26.324;2022-12-20T04:17:16;3.10;;;1.30;;
21235;SDS011;10775;42.678;26.324;2022-12-20T04:19:42;2.55;;;0.93;;
21235;SDS011;10775;42.678;26.324;2022-12-20T04:22:07;2.92;;;1.40;;
21235;SDS011;10775;42.678;26.324;2022-12-20T04:24:33;3.15;;;1.40;;
21235;SDS011;10775;42.678;26.324;2022-12-20T04:26:59;2.38;;;1.13;;
21235;SDS011;10775;42.678;26.324;2022-12-20T04:29:25;2.05;;;1.05;;
21235;SDS011;10775;42.678;26.324;2022-12-20T04:31:51;2.30;;;1.05;;
21235;SDS011;10775;42.678;26.324;2022-12-20T04:34:17;2.95;;;1.17;;
21235;SDS011;10775;42.678;26.324;2022-12-20T04:36:43;2.28;;;1.25;;
21235;SDS011;10775;42.678;26.324;2022-12-20T04:39:08;2.63;;;0.93;;
21235;SDS011;10775;42.678;26.324;2022-12-20T04:41:34;2.72;;;1.17;;
21235;SDS011;10775;42.678;26.324;2022-12-20T04:44:00;2.97;;;1.33;;
21235;SDS011;10775;42.678;26.324;2022-12-20T04:46:25;2.20;;;1.08;;
21235;SDS011;10775;42.678;26.324;2022-12-20T04:48:51;3.17;;;1.30;;
21235;SDS011;10775;42.678;26.324;2022-12-20T04:51:19;3.80;;;1.35;;
21235;SDS011;10775;42.678;26.324;2022-12-20T04:53:45;2.33;;;1.08;;
21235;SDS011;10775;42.678;26.324;2022-12-20T04:58:41;2.88;;;1.10;;
21235;SDS011;10775;42.678;26.324;2022-12-20T05:01:07;2.45;;;1.00;;
21235;SDS011;10775;42.678;26.324;2022-12-20T05:03:35;2.30;;;1.30;;
21235;SDS011;10775;42.678;26.324;2022-12-20T05:06:02;2.53;;;0.95;;
21235;SDS011;10775;42.678;26.324;2022-12-20T05:08:29;1.77;;;0.93;;
21235;SDS011;10775;42.678;26.324;2022-12-20T05:10:56;3.35;;;0.98;;
21235;SDS011;10775;42.678;26.324;2022-12-20T05:13:25;2.35;;;1.17;;
21235;SDS011;10775;42.678;26.324;2022-12-20T05:15:52;3.53;;;1.15;;
21235;SDS011;10775;42.678;26.324;2022-12-20T05:18:20;1.95;;;0.95;;
21235;SDS011;10775;42.678;26.324;2022-12-20T05:20:47;2.75;;;0.95;;
21235;SDS011;10775;42.678;26.324;2022-12-20T05:23:35;2.05;;;1.10;;
21235;SDS011;10775;42.678;26.324;2022-12-20T05:26:19;3.67;;;1.10;;
21235;SDS011;10775;42.678;26.324;2022-12-20T05:28:47;3.55;;;1.48;;
21235;SDS011;10775;42.678;26.324;2022-12-20T05:31:12;4.07;;;2.42;;
21235;SDS011;10775;42.678;26.324;2022-12-20T05:33:38;3.97;;;2.20;;
21235;SDS011;10775;42.678;26.324;2022-12-20T05:36:11;3.60;;;2.17;;
21235;SDS011;10775;42.678;26.324;2022-12-20T05:38:37;4.82;;;2.85;;
21235;SDS011;10775;42.678;26.324;2022-12-20T05:41:02;8.20;;;2.90;;
21235;SDS011;10775;42.678;26.324;2022-12-20T05:43:33;6.53;;;3.83;;
21235;SDS011;10775;42.678;26.324;2022-12-20T05:45:58;5.15;;;3.10;;
21235;SDS011;10775;42.678;26.324;2022-12-20T05:48:24;7.32;;;3.75;;
21235;SDS011;10775;42.678;26.324;2022-12-20T05:50:53;4.88;;;1.90;;
21235;SDS011;10775;42.678;26.324;2022-12-20T05:53:19;3.53;;;1.65;;
21235;SDS011;10775;42.678;26.324;2022-12-20T05:55:48;5.55;;;2.00;;
21235;SDS011;10775;42.678;26.324;2022-12-20T05:58:18;3.40;;;1.52;;
21235;SDS011;10775;42.678;26.324;2022-12-20T06:00:44;4.50;;;1.67;;
21235;SDS011;10775;42.678;26.324;2022-12-20T06:03:15;4.95;;;1.55;;
21235;SDS011;10775;42.678;26.324;2022-12-20T06:05:43;3.40;;;1.83;;
21235;SDS011;10775;42.678;26.324;2022-12-20T06:08:10;2.83;;;1.75;;
21235;SDS011;10775;42.678;26.324;2022-12-20T06:10:36;8.23;;;4.45;;
21235;SDS011;10775;42.678;26.324;2022-12-20T06:13:02;6.70;;;3.92;;
21235;SDS011;10775;42.678;26.324;2022-12-20T06:15:28;13.18;;;5.63;;
21235;SDS011;10775;42.678;26.324;2022-12-20T06:17:54;26.10;;;14.10;;
21235;SDS011;10775;42.678;26.324;2022-12-20T06:20:20;7.47;;;3.20;;
21235;SDS011;10775;42.678;26.324;2022-12-20T06:22:45;25.75;;;11.43;;
21235;SDS011;10775;42.678;26.324;2022-12-20T06:25:11;10.48;;;5.93;;
21235;SDS011;10775;42.678;26.324;2022-12-20T06:27:39;3.92;;;1.90;;
21235;SDS011;10775;42.678;26.324;2022-12-20T06:30:05;3.10;;;1.65;;
21235;SDS011;10775;42.678;26.324;2022-12-20T06:32:32;7.32;;;3.22;;
21235;SDS011;10775;42.678;26.324;2022-12-20T06:34:58;5.20;;;2.20;;
21235;SDS011;10775;42.678;26.324;2022-12-20T06:37:23;2.33;;;1.58;;
21235;SDS011;10775;42.678;26.324;2022-12-20T06:39:49;4.13;;;1.77;;
21235;SDS011;10775;42.678;26.324;2022-12-20T06:42:15;21.20;;;8.85;;
21235;SDS011;10775;42.678;26.324;2022-12-20T06:44:42;5.10;;;3.13;;
21235;SDS011;10775;42.678;26.324;2022-12-20T06:47:07;6.72;;;4.05;;
21235;SDS011;10775;42.678;26.324;2022-12-20T06:49:33;4.72;;;3.17;;
21235;SDS011;10775;42.678;26.324;2022-12-20T06:51:59;8.48;;;2.88;;
21235;SDS011;10775;42.678;26.324;2022-12-20T06:54:25;4.35;;;2.03;;
21235;SDS011;10775;42.678;26.324;2022-12-20T06:56:50;4.68;;;2.85;;
21235;SDS011;10775;42.678;26.324;2022-12-20T06:59:16;4.93;;;2.70;;
21235;SDS011;10775;42.678;26.324;2022-12-20T07:01:42;7.88;;;3.78;;
21235;SDS011;10775;42.678;26.324;2022-12-20T07:04:09;6.57;;;3.47;;
21235;SDS011;10775;42.678;26.324;2022-12-20T07:06:35;5.88;;;2.13;;
21235;SDS011;10775;42.678;26.324;2022-12-20T07:09:00;3.60;;;1.88;;
21235;SDS011;10775;42.678;26.324;2022-12-20T07:11:26;3.15;;;2.00;;
21235;SDS011;10775;42.678;26.324;2022-12-20T07:13:56;8.70;;;4.30;;
21235;SDS011;10775;42.678;26.324;2022-12-20T07:16:22;12.85;;;4.85;;
21235;SDS011;10775;42.678;26.324;2022-12-20T07:18:48;14.50;;;5.95;;
21235;SDS011;10775;42.678;26.324;2022-12-20T07:21:15;15.77;;;7.25;;
21235;SDS011;10775;42.678;26.324;2022-12-20T07:23:41;15.30;;;7.97;;
21235;SDS011;10775;42.678;26.324;2022-12-20T07:26:08;18.70;;;8.27;;
21235;SDS011;10775;42.678;26.324;2022-12-20T07:28:35;18.13;;;9.10;;
21235;SDS011;10775;42.678;26.324;2022-12-20T07:31:01;22.55;;;11.45;;
21235;SDS011;10775;42.678;26.324;2022-12-20T07:33:28;21.90;;;10.48;;
21235;SDS011;10775;42.678;26.324;2022-12-20T07:36:01;22.58;;;11.38;;
21235;SDS011;10775;42.678;26.324;2022-12-20T07:38:32;24.98;;;14.82;;
21235;SDS011;10775;42.678;26.324;2022-12-20T07:40:59;24.27;;;10.07;;
21235;SDS011;10775;42.678;26.324;2022-12-20T07:43:26;22.48;;;11.13;;
21235;SDS011;10775;42.678;26.324;2022-12-20T07:45:55;28.48;;;12.88;;
21235;SDS011;10775;42.678;26.324;2022-12-20T07:48:23;24.80;;;13.05;;
21235;SDS011;10775;42.678;26.324;2022-12-20T07:50:52;24.77;;;12.63;;
21235;SDS011;10775;42.678;26.324;2022-12-20T07:53:20;25.52;;;12.82;;
21235;SDS011;10775;42.678;26.324;2022-12-20T07:55:52;29.50;;;13.00;;
21235;SDS011;10775;42.678;26.324;2022-12-20T07:58:19;29.73;;;13.30;;
21235;SDS011;10775;42.678;26.324;2022-12-20T08:00:46;33.10;;;16.02;;
21235;SDS011;10775;42.678;26.324;2022-12-20T08:03:17;40.60;;;18.83;;
21235;SDS011;10775;42.678;26.324;2022-12-20T08:05:51;44.17;;;20.58;;
21235;SDS011;10775;42.678;26.324;2022-12-20T08:08:19;34.50;;;17.00;;
21235;SDS011;10775;42.678;26.324;2022-12-20T08:10:46;34.03;;;17.65;;
21235;SDS011;10775;42.678;26.324;2022-12-20T08:13:13;37.00;;;19.13;;
21235;SDS011;10775;42.678;26.324;2022-12-20T08:15:39;37.65;;;18.50;;
21235;SDS011;10775;42.678;26.324;2022-12-20T08:18:09;40.60;;;18.77;;
21235;SDS011;10775;42.678;26.324;2022-12-20T08:20:34;39.95;;;19.30;;
21235;SDS011;10775;42.678;26.324;2022-12-20T08:23:03;36.97;;;18.70;;
21235;SDS011;10775;42.678;26.324;2022-12-20T08:25:29;37.45;;;18.65;;
21235;SDS011;10775;42.678;26.324;2022-12-20T08:27:55;45.30;;;19.77;;
21235;SDS011;10775;42.678;26.324;2022-12-20T08:30:21;49.95;;;24.02;;
21235;SDS011;10775;42.678;26.324;2022-12-20T08:32:50;45.65;;;20.85;;
21235;SDS011;10775;42.678;26.324;2022-12-20T08:35:16;39.22;;;20.23;;
21235;SDS011;10775;42.678;26.324;2022-12-20T08:37:42;37.83;;;20.75;;
21235;SDS011;10775;42.678;26.324;2022-12-20T08:40:08;50.08;;;23.02;;
21235;SDS011;10775;42.678;26.324;2022-12-20T08:42:36;59.28;;;25.13;;
21235;SDS011;10775;42.678;26.324;2022-12-20T08:45:05;40.67;;;18.70;;
21235;SDS011;10775;42.678;26.324;2022-12-20T08:47:31;40.00;;;19.88;;
21235;SDS011;10775;42.678;26.324;2022-12-20T08:49:57;44.47;;;21.20;;
21235;SDS011;10775;42.678;26.324;2022-12-20T08:52:23;48.95;;;21.15;;
21235;SDS011;10775;42.678;26.324;2022-12-20T08:54:49;40.80;;;18.65;;
21235;SDS011;10775;42.678;26.324;2022-12-20T08:57:15;41.58;;;18.92;;
21235;SDS011;10775;42.678;26.324;2022-12-20T08:59:48;41.63;;;19.75;;
21235;SDS011;10775;42.678;26.324;2022-12-20T09:02:13;47.45;;;22.50;;
21235;SDS011;10775;42.678;26.324;2022-12-20T09:04:39;39.90;;;19.42;;
21235;SDS011;10775;42.678;26.324;2022-12-20T09:07:05;42.70;;;20.20;;
21235;SDS011;10775;42.678;26.324;2022-12-20T09:09:31;41.10;;;20.35;;
21235;SDS011;10775;42.678;26.324;2022-12-20T09:11:56;45.55;;;19.95;;
21235;SDS011;10775;42.678;26.324;2022-12-20T09:14:23;40.30;;;19.15;;
21235;SDS011;10775;42.678;26.324;2022-12-20T09:16:49;47.28;;;18.25;;
21235;SDS011;10775;42.678;26.324;2022-12-20T09:19:15;37.38;;;17.90;;
21235;SDS011;10775;42.678;26.324;2022-12-20T09:21:42;35.53;;;16.67;;
21235;SDS011;10775;42.678;26.324;2022-12-20T09:24:08;32.65;;;15.15;;
21235;SDS011;10775;42.678;26.324;2022-12-20T09:26:34;36.10;;;15.40;;
21235;SDS011;10775;42.678;26.324;2022-12-20T09:29:01;30.75;;;13.65;;
21235;SDS011;10775;42.678;26.324;2022-12-20T09:31:27;33.72;;;14.27;;
21235;SDS011;10775;42.678;26.324;2022-12-20T09:33:54;31.02;;;13.80;;
21235;SDS011;10775;42.678;26.324;2022-12-20T09:36:23;30.60;;;14.20;;
21235;SDS011;10775;42.678;26.324;2022-12-20T09:38:50;34.20;;;13.43;;
21235;SDS011;10775;42.678;26.324;2022-12-20T09:41:22;28.52;;;12.52;;
21235;SDS011;10775;42.678;26.324;2022-12-20T09:43:51;34.85;;;13.70;;
21235;SDS011;10775;42.678;26.324;2022-12-20T09:46:18;32.05;;;12.77;;
21235;SDS011;10775;42.678;26.324;2022-12-20T09:48:44;31.52;;;12.45;;
21235;SDS011;10775;42.678;26.324;2022-12-20T09:51:18;24.50;;;11.27;;
21235;SDS011;10775;42.678;26.324;2022-12-20T09:56:50;25.40;;;10.73;;
21235;SDS011;10775;42.678;26.324;2022-12-20T09:59:22;24.88;;;11.13;;
21235;SDS011;10775;42.678;26.324;2022-12-20T10:01:48;24.77;;;11.32;;
21235;SDS011;10775;42.678;26.324;2022-12-20T10:04:27;24.90;;;10.65;;
21235;SDS011;10775;42.678;26.324;2022-12-20T10:07:38;27.20;;;10.67;;
21235;SDS011;10775;42.678;26.324;2022-12-20T10:09:59;26.35;;;11.13;;
21235;SDS011;10775;42.678;26.324;2022-12-20T10:15:03;22.58;;;9.63;;
21235;SDS011;10775;42.678;26.324;2022-12-20T10:20:37;19.05;;;8.52;;
21235;SDS011;10775;42.678;26.324;2022-12-20T10:23:26;21.55;;;9.07;;
21235;SDS011;10775;42.678;26.324;2022-12-20T10:26:13;17.73;;;7.82;;
21235;SDS011;10775;42.678;26.324;2022-12-20T10:28:39;20.92;;;8.52;;
21235;SDS011;10775;42.678;26.324;2022-12-20T10:31:14;18.02;;;7.90;;
21235;SDS011;10775;42.678;26.324;2022-12-20T10:33:41;20.42;;;7.88;;
21235;SDS011;10775;42.678;26.324;2022-12-20T10:36:27;19.08;;;7.90;;
21235;SDS011;10775;42.678;26.324;2022-12-20T10:38:59;17.42;;;7.70;;
21235;SDS011;10775;42.678;26.324;2022-12-20T10:41:27;17.40;;;8.32;;
21235;SDS011;10775;42.678;26.324;2022-12-20T10:43:57;16.88;;;7.28;;
21235;SDS011;10775;42.678;26.324;2022-12-20T10:46:36;21.75;;;8.35;;
21235;SDS011;10775;42.678;26.324;2022-12-20T10:49:46;16.50;;;7.65;;
21235;SDS011;10775;42.678;26.324;2022-12-20T10:52:13;22.27;;;7.38;;
21235;SDS011;10775;42.678;26.324;2022-12-20T10:54:43;16.35;;;7.50;;
21235;SDS011;10775;42.678;26.324;2022-12-20T10:57:26;14.00;;;7.07;;
21235;SDS011;10775;42.678;26.324;2022-12-20T10:59:55;14.38;;;5.95;;
21235;SDS011;10775;42.678;26.324;2022-12-20T11:07:35;13.02;;;5.93;;
21235;SDS011;10775;42.678;26.324;2022-12-20T11:10:16;15.30;;;6.35;;
21235;SDS011;10775;42.678;26.324;2022-12-20T11:12:54;10.82;;;4.80;;
21235;SDS011;10775;42.678;26.324;2022-12-20T11:15:23;10.60;;;5.00;;
21235;SDS011;10775;42.678;26.324;2022-12-20T11:23:31;9.25;;;4.72;;
21235;SDS011;10775;42.678;26.324;2022-12-20T11:37:20;9.13;;;5.00;;
21235;SDS011;10775;42.678;26.324;2022-12-20T11:52:19;8.63;;;4.30;;
21235;SDS011;10775;42.678;26.324;2022-12-20T11:55:02;8.65;;;4.07;;
21235;SDS011;10775;42.678;26.324;2022-12-20T11:58:12;11.98;;;6.18;;
21235;SDS011;10775;42.678;26.324;2022-12-20T12:00:40;7.90;;;4.22;;
21235;SDS011;10775;42.678;26.324;2022-12-20T12:03:38;6.90;;;3.97;;
21235;SDS011;10775;42.678;26.324;2022-12-20T12:06:06;6.75;;;3.95;;
21235;SDS011;10775;42.678;26.324;2022-12-20T12:11:29;9.18;;;4.28;;
21235;SDS011;10775;42.678;26.324;2022-12-20T12:14:00;7.97;;;3.70;;
21235;SDS011;10775;42.678;26.324;2022-12-20T12:16:33;7.60;;;3.58;;
21235;SDS011;10775;42.678;26.324;2022-12-20T12:19:02;5.53;;;3.22;;
21235;SDS011;10775;42.678;26.324;2022-12-20T12:21:32;6.55;;;3.78;;
21235;SDS011;10775;42.678;26.324;2022-12-20T12:26:59;7.72;;;4.63;;
21235;SDS011;10775;42.678;26.324;2022-12-20T12:29:27;5.45;;;3.17;;
21235;SDS011;10775;42.678;26.324;2022-12-20T12:45:48;6.93;;;3.22;;
21235;SDS011;10775;42.678;26.324;2022-12-20T12:51:33;8.27;;;4.85;;
21235;SDS011;10775;42.678;26.324;2022-12-20T12:54:11;7.07;;;3.90;;
21235;SDS011;10775;42.678;26.324;2022-12-20T12:56:47;7.35;;;4.78;;
21235;SDS011;10775;42.678;26.324;2022-12-20T13:05:29;6.03;;;3.25;;
21235;SDS011;10775;42.678;26.324;2022-12-20T13:07:26;7.57;;;3.10;;
21235;SDS011;10775;42.678;26.324;2022-12-20T13:09:55;5.95;;;3.30;;
21235;SDS011;10775;42.678;26.324;2022-12-20T13:14:58;5.65;;;3.35;;
21235;SDS011;10775;42.678;26.324;2022-12-20T13:19:56;6.93;;;3.30;;
21235;SDS011;10775;42.678;26.324;2022-12-20T13:22:23;5.53;;;2.60;;
21235;SDS011;10775;42.678;26.324;2022-12-20T13:24:59;4.10;;;2.65;;
21235;SDS011;10775;42.678;26.324;2022-12-20T13:35:28;9.40;;;4.10;;
21235;SDS011;10775;42.678;26.324;2022-12-20T13:40:41;12.88;;;5.70;;
21235;SDS011;10775;42.678;26.324;2022-12-20T13:46:11;7.43;;;3.38;;
21235;SDS011;10775;42.678;26.324;2022-12-20T13:49:01;6.57;;;4.13;;
21235;SDS011;10775;42.678;26.324;2022-12-20T13:51:28;7.30;;;3.97;;
21235;SDS011;10775;42.678;26.324;2022-12-20T13:54:02;10.63;;;3.83;;
21235;SDS011;10775;42.678;26.324;2022-12-20T13:59:26;6.78;;;3.72;;
21235;SDS011;10775;42.678;26.324;2022-12-20T14:01:57;14.15;;;7.10;;
21235;SDS011;10775;42.678;26.324;2022-12-20T14:04:25;12.70;;;5.65;;
21235;SDS011;10775;42.678;26.324;2022-12-20T14:07:03;9.45;;;4.90;;
21235;SDS011;10775;42.678;26.324;2022-12-20T14:09:30;9.20;;;4.13;;
21235;SDS011;10775;42.678;26.324;2022-12-20T14:12:14;7.55;;;4.43;;
21235;SDS011;10775;42.678;26.324;2022-12-20T14:14:43;12.75;;;5.38;;
21235;SDS011;10775;42.678;26.324;2022-12-20T14:17:29;8.30;;;4.70;;
21235;SDS011;10775;42.678;26.324;2022-12-20T14:20:11;12.13;;;6.63;;
21235;SDS011;10775;42.678;26.324;2022-12-20T14:27:54;8.77;;;4.38;;
21235;SDS011;10775;42.678;26.324;2022-12-20T14:30:28;8.68;;;4.25;;
21235;SDS011;10775;42.678;26.324;2022-12-20T14:32:56;18.38;;;8.95;;
21235;SDS011;10775;42.678;26.324;2022-12-20T14:35:23;7.75;;;4.28;;
21235;SDS011;10775;42.678;26.324;2022-12-20T14:37:53;8.00;;;4.55;;
21235;SDS011;10775;42.678;26.324;2022-12-20T14:40:20;7.88;;;3.60;;
21235;SDS011;10775;42.678;26.324;2022-12-20T14:42:47;8.00;;;4.03;;
21235;SDS011;10775;42.678;26.324;2022-12-20T14:47:46;8.02;;;4.10;;
21235;SDS011;10775;42.678;26.324;2022-12-20T14:50:17;15.90;;;9.73;;
21235;SDS011;10775;42.678;26.324;2022-12-20T14:52:46;14.55;;;8.65;;
21235;SDS011;10775;42.678;26.324;2022-12-20T14:55:15;14.63;;;8.43;;
21235;SDS011;10775;42.678;26.324;2022-12-20T15:00:23;30.10;;;15.55;;
21235;SDS011;10775;42.678;26.324;2022-12-20T15:11:10;19.52;;;10.25;;
21235;SDS011;10775;42.678;26.324;2022-12-20T15:13:43;27.05;;;12.75;;
21235;SDS011;10775;42.678;26.324;2022-12-20T15:16:23;22.10;;;11.00;;
21235;SDS011;10775;42.678;26.324;2022-12-20T15:19:00;22.13;;;10.25;;
21235;SDS011;10775;42.678;26.324;2022-12-20T15:21:31;20.85;;;10.32;;
21235;SDS011;10775;42.678;26.324;2022-12-20T15:24:03;19.95;;;9.63;;
21235;SDS011;10775;42.678;26.324;2022-12-20T15:26:34;28.02;;;13.52;;
21235;SDS011;10775;42.678;26.324;2022-12-20T15:29:03;24.70;;;14.20;;
21235;SDS011;10775;42.678;26.324;2022-12-20T15:31:30;27.02;;;14.40;;
21235;SDS011;10775;42.678;26.324;2022-12-20T15:33:59;26.98;;;14.55;;
21235;SDS011;10775;42.678;26.324;2022-12-20T15:36:28;23.70;;;13.73;;
21235;SDS011;10775;42.678;26.324;2022-12-20T15:39:00;30.42;;;15.32;;
21235;SDS011;10775;42.678;26.324;2022-12-20T15:41:27;33.63;;;17.45;;
21235;SDS011;10775;42.678;26.324;2022-12-20T15:43:56;28.30;;;15.40;;
21235;SDS011;10775;42.678;26.324;2022-12-20T15:46:25;29.17;;;16.67;;
21235;SDS011;10775;42.678;26.324;2022-12-20T15:48:51;26.08;;;15.05;;
21235;SDS011;10775;42.678;26.324;2022-12-20T15:51:31;29.15;;;16.35;;
21235;SDS011;10775;42.678;26.324;2022-12-20T15:53:59;27.17;;;15.43;;
21235;SDS011;10775;42.678;26.324;2022-12-20T15:56:27;26.67;;;16.02;;
21235;SDS011;10775;42.678;26.324;2022-12-20T15:58:53;26.00;;;14.82;;
21235;SDS011;10775;42.678;26.324;2022-12-20T16:01:20;23.02;;;12.93;;
21235;SDS011;10775;42.678;26.324;2022-12-20T16:03:50;22.67;;;12.48;;
21235;SDS011;10775;42.678;26.324;2022-12-20T16:06:16;21.73;;;10.57;;
21235;SDS011;10775;42.678;26.324;2022-12-20T16:08:47;21.45;;;11.63;;
21235;SDS011;10775;42.678;26.324;2022-12-20T16:11:21;22.50;;;14.13;;
21235;SDS011;10775;42.678;26.324;2022-12-20T16:13:49;21.63;;;12.32;;
21235;SDS011;10775;42.678;26.324;2022-12-20T16:16:17;23.17;;;12.50;;
21235;SDS011;10775;42.678;26.324;2022-12-20T16:19:06;22.73;;;11.80;;
21235;SDS011;10775;42.678;26.324;2022-12-20T16:21:33;23.55;;;12.48;;
21235;SDS011;10775;42.678;26.324;2022-12-20T16:24:08;23.13;;;11.07;;
21235;SDS011;10775;42.678;26.324;2022-12-20T16:26:39;24.80;;;11.40;;
21235;SDS011;10775;42.678;26.324;2022-12-20T16:29:06;22.92;;;11.48;;
21235;SDS011;10775;42.678;26.324;2022-12-20T16:31:39;21.05;;;11.38;;
21235;SDS011;10775;42.678;26.324;2022-12-20T16:34:09;19.48;;;11.27;;
21235;SDS011;10775;42.678;26.324;2022-12-20T16:36:38;18.63;;;10.13;;
21235;SDS011;10775;42.678;26.324;2022-12-20T16:39:04;18.38;;;10.65;;
21235;SDS011;10775;42.678;26.324;2022-12-20T16:41:33;16.92;;;9.75;;
21235;SDS011;10775;42.678;26.324;2022-12-20T16:44:01;19.40;;;11.35;;
21235;SDS011;10775;42.678;26.324;2022-12-20T16:46:28;16.08;;;9.68;;
21235;SDS011;10775;42.678;26.324;2022-12-20T16:48:57;17.83;;;9.15;;
21235;SDS011;10775;42.678;26.324;2022-12-20T16:51:43;15.27;;;8.25;;
21235;SDS011;10775;42.678;26.324;2022-12-20T16:54:19;20.23;;;9.43;;
21235;SDS011;10775;42.678;26.324;2022-12-20T16:56:47;18.55;;;10.02;;